sensor_id;sensor_type;location;lat;lon;timestamp;P1;durP1;ratioP1;P2;durP2;ratioP2
28587;SDS011;15787;49.662;10.162;2023-06-14T00:00:08;8.05;;;5.18;;
28587;SDS011;15787;49.662;10.162;2023-06-14T00:02:44;9.45;;;5.20;;
28587;SDS011;15787;49.662;10.162;2023-06-14T00:05:17;10.68;;;4.95;;
28587;SDS011;15787;49.662;10.162;2023-06-14T00:07:50;10.57;;;4.65;;
28587;SDS011;15787;49.662;10.162;2023-06-14T00:10:25;7.97;;;4.65;;
28587;SDS011;15787;49.662;10.162;2023-06-14T00:13:04;7.93;;;4.68;;
28587;SDS011;15787;49.662;10.162;2023-06-14T00:15:39;8.30;;;5.18;;
28587;SDS011;15787;49.662;10.162;2023-06-14T00:18:12;8.77;;;4.55;;
28587;SDS011;15787;49.662;10.162;2023-06-14T00:20:46;9.38;;;4.82;;
28587;SDS011;15787;49.662;10.162;2023-06-14T00:23:19;6.93;;;4.88;;
28587;SDS011;15787;49.662;10.162;2023-06-14T00:25:52;9.45;;;5.18;;
28587;SDS011;15787;49.662;10.162;2023-06-14T00:28:27;6.95;;;5.03;;
28587;SDS011;15787;49.662;10.162;2023-06-14T00:31:00;8.45;;;4.47;;
28587;SDS011;15787;49.662;10.162;2023-06-14T00:33:34;9.05;;;5.47;;
28587;SDS011;15787;49.662;10.162;2023-06-14T00:36:07;7.25;;;4.75;;
28587;SDS011;15787;49.662;10.162;2023-06-14T00:38:40;9.93;;;5.45;;
28587;SDS011;15787;49.662;10.162;2023-06-14T00:41:13;9.57;;;5.20;;
28587;SDS011;15787;49.662;10.162;2023-06-14T00:43:48;9.23;;;5.30;;
28587;SDS011;15787;49.662;10.162;2023-06-14T00:46:21;7.57;;;5.20;;
28587;SDS011;15787;49.662;10.162;2023-06-14T00:48:54;6.97;;;5.07;;
28587;SDS011;15787;49.662;10.162;2023-06-14T00:51:29;7.88;;;5.10;;
28587;SDS011;15787;49.662;10.162;2023-06-14T00:54:03;8.23;;;4.95;;
28587;SDS011;15787;49.662;10.162;2023-06-14T00:56:37;8.52;;;5.57;;
28587;SDS011;15787;49.662;10.162;2023-06-14T00:59:12;9.20;;;5.57;;
28587;SDS011;15787;49.662;10.162;2023-06-14T01:01:47;7.60;;;4.93;;
28587;SDS011;15787;49.662;10.162;2023-06-14T01:04:20;7.60;;;5.25;;
28587;SDS011;15787;49.662;10.162;2023-06-14T01:06:55;10.07;;;4.88;;
28587;SDS011;15787;49.662;10.162;2023-06-14T01:09:37;10.30;;;5.20;;
28587;SDS011;15787;49.662;10.162;2023-06-14T01:12:24;9.23;;;4.88;;
28587;SDS011;15787;49.662;10.162;2023-06-14T01:15:06;11.55;;;5.32;;
28587;SDS011;15787;49.662;10.162;2023-06-14T01:17:41;8.85;;;4.80;;
28587;SDS011;15787;49.662;10.162;2023-06-14T01:20:18;9.07;;;5.32;;
28587;SDS011;15787;49.662;10.162;2023-06-14T01:22:54;7.47;;;4.97;;
28587;SDS011;15787;49.662;10.162;2023-06-14T01:25:27;8.57;;;5.28;;
28587;SDS011;15787;49.662;10.162;2023-06-14T01:28:01;8.43;;;5.32;;
28587;SDS011;15787;49.662;10.162;2023-06-14T01:30:42;14.25;;;6.47;;
28587;SDS011;15787;49.662;10.162;2023-06-14T01:33:19;8.20;;;5.97;;
28587;SDS011;15787;49.662;10.162;2023-06-14T01:35:53;9.23;;;5.72;;
28587;SDS011;15787;49.662;10.162;2023-06-14T01:38:30;9.77;;;5.47;;
28587;SDS011;15787;49.662;10.162;2023-06-14T01:41:04;11.05;;;5.70;;
28587;SDS011;15787;49.662;10.162;2023-06-14T01:43:38;8.82;;;5.65;;
28587;SDS011;15787;49.662;10.162;2023-06-14T01:46:12;10.77;;;7.05;;
28587;SDS011;15787;49.662;10.162;2023-06-14T01:48:48;8.77;;;5.53;;
28587;SDS011;15787;49.662;10.162;2023-06-14T01:51:22;11.02;;;5.75;;
28587;SDS011;15787;49.662;10.162;2023-06-14T01:53:56;11.40;;;5.78;;
28587;SDS011;15787;49.662;10.162;2023-06-14T01:56:29;8.60;;;5.57;;
28587;SDS011;15787;49.662;10.162;2023-06-14T01:59:04;12.43;;;6.03;;
28587;SDS011;15787;49.662;10.162;2023-06-14T02:01:39;9.05;;;6.72;;
28587;SDS011;15787;49.662;10.162;2023-06-14T02:04:13;13.15;;;6.78;;
28587;SDS011;15787;49.662;10.162;2023-06-14T02:06:46;9.02;;;6.00;;
28587;SDS011;15787;49.662;10.162;2023-06-14T02:09:20;10.55;;;6.43;;
28587;SDS011;15787;49.662;10.162;2023-06-14T02:11:58;13.75;;;7.10;;
28587;SDS011;15787;49.662;10.162;2023-06-14T02:14:31;12.88;;;6.22;;
28587;SDS011;15787;49.662;10.162;2023-06-14T02:17:05;9.85;;;6.68;;
28587;SDS011;15787;49.662;10.162;2023-06-14T02:19:38;12.45;;;5.60;;
28587;SDS011;15787;49.662;10.162;2023-06-14T02:22:12;9.07;;;6.35;;
28587;SDS011;15787;49.662;10.162;2023-06-14T02:24:47;12.68;;;6.03;;
28587;SDS011;15787;49.662;10.162;2023-06-14T02:27:32;11.43;;;6.68;;
28587;SDS011;15787;49.662;10.162;2023-06-14T02:30:05;8.45;;;5.72;;
28587;SDS011;15787;49.662;10.162;2023-06-14T02:32:39;9.60;;;6.20;;
28587;SDS011;15787;49.662;10.162;2023-06-14T02:35:16;9.02;;;6.05;;
28587;SDS011;15787;49.662;10.162;2023-06-14T02:37:49;9.15;;;5.93;;
28587;SDS011;15787;49.662;10.162;2023-06-14T02:40:27;9.40;;;5.65;;
28587;SDS011;15787;49.662;10.162;2023-06-14T02:43:02;11.32;;;6.80;;
28587;SDS011;15787;49.662;10.162;2023-06-14T02:45:36;9.40;;;6.28;;
28587;SDS011;15787;49.662;10.162;2023-06-14T02:48:09;10.52;;;6.65;;
28587;SDS011;15787;49.662;10.162;2023-06-14T02:50:44;9.57;;;6.03;;
28587;SDS011;15787;49.662;10.162;2023-06-14T02:53:18;9.00;;;6.13;;
28587;SDS011;15787;49.662;10.162;2023-06-14T02:55:53;9.65;;;5.95;;
28587;SDS011;15787;49.662;10.162;2023-06-14T02:58:27;8.90;;;5.53;;
28587;SDS011;15787;49.662;10.162;2023-06-14T03:01:01;11.70;;;6.68;;
28587;SDS011;15787;49.662;10.162;2023-06-14T03:03:36;11.00;;;6.72;;
28587;SDS011;15787;49.662;10.162;2023-06-14T03:06:09;9.75;;;5.95;;
28587;SDS011;15787;49.662;10.162;2023-06-14T03:08:46;7.28;;;5.75;;
28587;SDS011;15787;49.662;10.162;2023-06-14T03:11:22;11.45;;;7.22;;
28587;SDS011;15787;49.662;10.162;2023-06-14T03:13:55;10.15;;;6.40;;
28587;SDS011;15787;49.662;10.162;2023-06-14T03:16:30;10.13;;;6.00;;
28587;SDS011;15787;49.662;10.162;2023-06-14T03:19:04;12.23;;;7.55;;
28587;SDS011;15787;49.662;10.162;2023-06-14T03:21:38;12.50;;;7.18;;
28587;SDS011;15787;49.662;10.162;2023-06-14T03:24:16;8.20;;;6.15;;
28587;SDS011;15787;49.662;10.162;2023-06-14T03:26:51;11.10;;;6.38;;
28587;SDS011;15787;49.662;10.162;2023-06-14T03:29:24;10.90;;;6.80;;
28587;SDS011;15787;49.662;10.162;2023-06-14T03:31:58;11.90;;;6.05;;
28587;SDS011;15787;49.662;10.162;2023-06-14T03:34:39;8.90;;;6.10;;
28587;SDS011;15787;49.662;10.162;2023-06-14T03:37:18;11.82;;;6.10;;
28587;SDS011;15787;49.662;10.162;2023-06-14T03:39:52;9.30;;;6.25;;
28587;SDS011;15787;49.662;10.162;2023-06-14T03:42:29;9.75;;;6.18;;
28587;SDS011;15787;49.662;10.162;2023-06-14T03:45:02;10.35;;;6.70;;
28587;SDS011;15787;49.662;10.162;2023-06-14T03:47:36;11.20;;;5.82;;
28587;SDS011;15787;49.662;10.162;2023-06-14T03:50:09;16.65;;;6.68;;
28587;SDS011;15787;49.662;10.162;2023-06-14T03:52:44;10.27;;;6.35;;
28587;SDS011;15787;49.662;10.162;2023-06-14T03:55:18;9.98;;;5.97;;
28587;SDS011;15787;49.662;10.162;2023-06-14T03:57:58;12.85;;;7.35;;
28587;SDS011;15787;49.662;10.162;2023-06-14T04:00:31;9.02;;;6.45;;
28587;SDS011;15787;49.662;10.162;2023-06-14T04:03:05;10.80;;;7.28;;
28587;SDS011;15787;49.662;10.162;2023-06-14T04:05:39;9.90;;;6.22;;
28587;SDS011;15787;49.662;10.162;2023-06-14T04:08:13;9.35;;;7.22;;
28587;SDS011;15787;49.662;10.162;2023-06-14T04:10:47;10.85;;;6.15;;
28587;SDS011;15787;49.662;10.162;2023-06-14T04:13:21;10.25;;;6.40;;
28587;SDS011;15787;49.662;10.162;2023-06-14T04:15:54;10.35;;;6.35;;
28587;SDS011;15787;49.662;10.162;2023-06-14T04:18:33;9.73;;;6.28;;
28587;SDS011;15787;49.662;10.162;2023-06-14T04:21:06;9.15;;;6.43;;
28587;SDS011;15787;49.662;10.162;2023-06-14T04:23:40;10.82;;;6.70;;
28587;SDS011;15787;49.662;10.162;2023-06-14T04:26:17;7.20;;;5.72;;
28587;SDS011;15787;49.662;10.162;2023-06-14T04:28:53;11.23;;;6.82;;
28587;SDS011;15787;49.662;10.162;2023-06-14T04:31:28;11.88;;;6.20;;
28587;SDS011;15787;49.662;10.162;2023-06-14T04:34:06;10.32;;;5.70;;
28587;SDS011;15787;49.662;10.162;2023-06-14T04:36:41;9.23;;;6.03;;
28587;SDS011;15787;49.662;10.162;2023-06-14T04:39:21;10.70;;;6.78;;
28587;SDS011;15787;49.662;10.162;2023-06-14T04:41:54;11.48;;;6.25;;
28587;SDS011;15787;49.662;10.162;2023-06-14T04:44:33;7.68;;;5.68;;
28587;SDS011;15787;49.662;10.162;2023-06-14T04:47:09;11.98;;;6.28;;
28587;SDS011;15787;49.662;10.162;2023-06-14T04:49:43;10.68;;;6.57;;
28587;SDS011;15787;49.662;10.162;2023-06-14T04:52:17;11.00;;;6.35;;
28587;SDS011;15787;49.662;10.162;2023-06-14T04:54:52;11.00;;;7.03;;
28587;SDS011;15787;49.662;10.162;2023-06-14T04:57:28;10.55;;;6.53;;
28587;SDS011;15787;49.662;10.162;2023-06-14T05:00:05;11.57;;;6.32;;
28587;SDS011;15787;49.662;10.162;2023-06-14T05:02:43;11.95;;;6.57;;
28587;SDS011;15787;49.662;10.162;2023-06-14T05:05:18;11.85;;;6.57;;
28587;SDS011;15787;49.662;10.162;2023-06-14T05:07:53;11.15;;;6.18;;
28587;SDS011;15787;49.662;10.162;2023-06-14T05:10:26;9.65;;;5.78;;
28587;SDS011;15787;49.662;10.162;2023-06-14T05:13:00;9.13;;;6.40;;
28587;SDS011;15787;49.662;10.162;2023-06-14T05:15:35;17.15;;;7.13;;
28587;SDS011;15787;49.662;10.162;2023-06-14T05:18:08;11.13;;;6.22;;
28587;SDS011;15787;49.662;10.162;2023-06-14T05:22:06;9.30;;;5.75;;
28587;SDS011;15787;49.662;10.162;2023-06-14T05:24:30;11.32;;;6.20;;
28587;SDS011;15787;49.662;10.162;2023-06-14T05:27:04;9.57;;;5.30;;
28587;SDS011;15787;49.662;10.162;2023-06-14T05:29:37;8.75;;;5.57;;
28587;SDS011;15787;49.662;10.162;2023-06-14T05:32:12;11.98;;;5.15;;
28587;SDS011;15787;49.662;10.162;2023-06-14T05:34:45;9.07;;;5.55;;
28587;SDS011;15787;49.662;10.162;2023-06-14T05:37:18;9.23;;;5.43;;
28587;SDS011;15787;49.662;10.162;2023-06-14T05:39:51;8.23;;;5.70;;
28587;SDS011;15787;49.662;10.162;2023-06-14T05:42:25;8.45;;;5.75;;
28587;SDS011;15787;49.662;10.162;2023-06-14T05:44:58;11.45;;;5.32;;
28587;SDS011;15787;49.662;10.162;2023-06-14T05:47:33;8.77;;;5.45;;
28587;SDS011;15787;49.662;10.162;2023-06-14T05:50:07;9.43;;;5.53;;
28587;SDS011;15787;49.662;10.162;2023-06-14T05:52:41;6.75;;;4.88;;
28587;SDS011;15787;49.662;10.162;2023-06-14T05:55:20;11.15;;;5.38;;
28587;SDS011;15787;49.662;10.162;2023-06-14T05:57:54;10.40;;;5.25;;
28587;SDS011;15787;49.662;10.162;2023-06-14T06:00:28;9.63;;;5.18;;
28587;SDS011;15787;49.662;10.162;2023-06-14T06:03:02;7.97;;;5.25;;
28587;SDS011;15787;49.662;10.162;2023-06-14T06:05:39;8.50;;;5.00;;
28587;SDS011;15787;49.662;10.162;2023-06-14T06:08:13;8.00;;;4.63;;
28587;SDS011;15787;49.662;10.162;2023-06-14T06:10:51;8.40;;;5.32;;
28587;SDS011;15787;49.662;10.162;2023-06-14T06:13:25;8.55;;;5.10;;
28587;SDS011;15787;49.662;10.162;2023-06-14T06:15:58;7.40;;;4.65;;
28587;SDS011;15787;49.662;10.162;2023-06-14T06:18:32;9.82;;;5.22;;
28587;SDS011;15787;49.662;10.162;2023-06-14T06:21:06;9.63;;;5.05;;
28587;SDS011;15787;49.662;10.162;2023-06-14T06:23:40;7.85;;;5.25;;
28587;SDS011;15787;49.662;10.162;2023-06-14T06:26:13;18.02;;;6.97;;
28587;SDS011;15787;49.662;10.162;2023-06-14T06:28:46;9.13;;;5.18;;
28587;SDS011;15787;49.662;10.162;2023-06-14T06:31:20;8.40;;;5.55;;
28587;SDS011;15787;49.662;10.162;2023-06-14T06:33:55;7.03;;;4.82;;
28587;SDS011;15787;49.662;10.162;2023-06-14T06:36:28;9.63;;;5.00;;
28587;SDS011;15787;49.662;10.162;2023-06-14T06:39:01;8.63;;;4.75;;
28587;SDS011;15787;49.662;10.162;2023-06-14T06:41:41;7.50;;;4.55;;
28587;SDS011;15787;49.662;10.162;2023-06-14T06:44:14;12.68;;;4.65;;
28587;SDS011;15787;49.662;10.162;2023-06-14T06:46:52;7.25;;;4.70;;
28587;SDS011;15787;49.662;10.162;2023-06-14T06:49:27;7.38;;;4.18;;
28587;SDS011;15787;49.662;10.162;2023-06-14T06:52:03;8.48;;;5.40;;
28587;SDS011;15787;49.662;10.162;2023-06-14T06:54:40;7.82;;;4.30;;
28587;SDS011;15787;49.662;10.162;2023-06-14T06:57:13;8.30;;;4.53;;
28587;SDS011;15787;49.662;10.162;2023-06-14T06:59:46;6.90;;;4.10;;
28587;SDS011;15787;49.662;10.162;2023-06-14T07:02:19;6.93;;;3.80;;
28587;SDS011;15787;49.662;10.162;2023-06-14T07:04:54;5.95;;;3.80;;
28587;SDS011;15787;49.662;10.162;2023-06-14T07:07:27;6.72;;;4.05;;
28587;SDS011;15787;49.662;10.162;2023-06-14T07:10:00;4.88;;;3.58;;
28587;SDS011;15787;49.662;10.162;2023-06-14T07:12:36;6.03;;;4.03;;
28587;SDS011;15787;49.662;10.162;2023-06-14T07:15:11;6.53;;;3.80;;
28587;SDS011;15787;49.662;10.162;2023-06-14T07:17:51;6.85;;;3.83;;
28587;SDS011;15787;49.662;10.162;2023-06-14T07:20:26;7.32;;;4.00;;
28587;SDS011;15787;49.662;10.162;2023-06-14T07:22:59;8.45;;;3.63;;
28587;SDS011;15787;49.662;10.162;2023-06-14T07:25:33;8.80;;;4.03;;
28587;SDS011;15787;49.662;10.162;2023-06-14T07:28:06;7.38;;;3.50;;
28587;SDS011;15787;49.662;10.162;2023-06-14T07:30:39;6.78;;;3.58;;
28587;SDS011;15787;49.662;10.162;2023-06-14T07:33:11;7.68;;;3.70;;
28587;SDS011;15787;49.662;10.162;2023-06-14T07:35:46;10.80;;;4.05;;
28587;SDS011;15787;49.662;10.162;2023-06-14T07:38:20;7.25;;;3.83;;
28587;SDS011;15787;49.662;10.162;2023-06-14T07:40:53;8.48;;;3.67;;
28587;SDS011;15787;49.662;10.162;2023-06-14T07:43:26;4.47;;;3.45;;
28587;SDS011;15787;49.662;10.162;2023-06-14T07:45:59;5.18;;;3.70;;
28587;SDS011;15787;49.662;10.162;2023-06-14T07:48:37;6.88;;;3.83;;
28587;SDS011;15787;49.662;10.162;2023-06-14T07:51:15;5.85;;;4.07;;
28587;SDS011;15787;49.662;10.162;2023-06-14T07:53:48;7.13;;;3.78;;
28587;SDS011;15787;49.662;10.162;2023-06-14T07:56:21;6.90;;;3.50;;
28587;SDS011;15787;49.662;10.162;2023-06-14T07:58:54;4.63;;;3.08;;
28587;SDS011;15787;49.662;10.162;2023-06-14T08:01:27;5.28;;;3.53;;
28587;SDS011;15787;49.662;10.162;2023-06-14T08:04:00;4.53;;;3.45;;
28587;SDS011;15787;49.662;10.162;2023-06-14T08:06:34;6.70;;;3.33;;
28587;SDS011;15787;49.662;10.162;2023-06-14T08:09:08;5.95;;;3.42;;
28587;SDS011;15787;49.662;10.162;2023-06-14T08:11:41;6.78;;;3.72;;
28587;SDS011;15787;49.662;10.162;2023-06-14T08:14:14;7.88;;;3.70;;
28587;SDS011;15787;49.662;10.162;2023-06-14T08:16:47;4.80;;;3.63;;
28587;SDS011;15787;49.662;10.162;2023-06-14T08:19:20;5.47;;;3.35;;
28587;SDS011;15787;49.662;10.162;2023-06-14T08:21:54;6.07;;;3.80;;
28587;SDS011;15787;49.662;10.162;2023-06-14T08:24:27;5.97;;;3.75;;
28587;SDS011;15787;49.662;10.162;2023-06-14T08:27:00;7.10;;;3.53;;
28587;SDS011;15787;49.662;10.162;2023-06-14T08:29:37;6.00;;;4.28;;
28587;SDS011;15787;49.662;10.162;2023-06-14T08:32:11;6.95;;;3.67;;
28587;SDS011;15787;49.662;10.162;2023-06-14T08:34:45;8.93;;;4.28;;
28587;SDS011;15787;49.662;10.162;2023-06-14T08:37:39;10.27;;;4.40;;
28587;SDS011;15787;49.662;10.162;2023-06-14T08:40:17;5.70;;;3.38;;
28587;SDS011;15787;49.662;10.162;2023-06-14T08:42:52;7.25;;;4.00;;
28587;SDS011;15787;49.662;10.162;2023-06-14T08:45:27;5.30;;;3.80;;
28587;SDS011;15787;49.662;10.162;2023-06-14T08:48:02;8.25;;;3.55;;
28587;SDS011;15787;49.662;10.162;2023-06-14T08:50:37;7.80;;;3.65;;
28587;SDS011;15787;49.662;10.162;2023-06-14T08:53:15;4.38;;;3.33;;
28587;SDS011;15787;49.662;10.162;2023-06-14T08:55:51;6.03;;;3.47;;
28587;SDS011;15787;49.662;10.162;2023-06-14T08:58:24;5.72;;;3.70;;
28587;SDS011;15787;49.662;10.162;2023-06-14T09:01:01;7.72;;;3.60;;
28587;SDS011;15787;49.662;10.162;2023-06-14T09:03:35;5.55;;;4.13;;
28587;SDS011;15787;49.662;10.162;2023-06-14T09:06:12;4.43;;;3.80;;
28587;SDS011;15787;49.662;10.162;2023-06-14T09:08:51;4.93;;;3.40;;
28587;SDS011;15787;49.662;10.162;2023-06-14T09:11:25;15.70;;;4.07;;
28587;SDS011;15787;49.662;10.162;2023-06-14T09:13:59;8.73;;;4.50;;
28587;SDS011;15787;49.662;10.162;2023-06-14T09:16:33;6.10;;;3.55;;
28587;SDS011;15787;49.662;10.162;2023-06-14T09:19:06;6.90;;;3.85;;
28587;SDS011;15787;49.662;10.162;2023-06-14T09:21:40;4.55;;;3.80;;
28587;SDS011;15787;49.662;10.162;2023-06-14T09:24:14;5.35;;;3.58;;
28587;SDS011;15787;49.662;10.162;2023-06-14T09:26:47;6.65;;;3.25;;
28587;SDS011;15787;49.662;10.162;2023-06-14T09:29:20;5.78;;;3.50;;
28587;SDS011;15787;49.662;10.162;2023-06-14T09:31:53;7.95;;;3.40;;
28587;SDS011;15787;49.662;10.162;2023-06-14T09:34:26;5.43;;;3.35;;
28587;SDS011;15787;49.662;10.162;2023-06-14T09:36:59;5.40;;;2.78;;
28587;SDS011;15787;49.662;10.162;2023-06-14T09:39:34;5.85;;;3.13;;
28587;SDS011;15787;49.662;10.162;2023-06-14T09:42:08;6.35;;;3.40;;
28587;SDS011;15787;49.662;10.162;2023-06-14T09:44:50;8.52;;;3.10;;
28587;SDS011;15787;49.662;10.162;2023-06-14T09:47:24;4.82;;;2.40;;
28587;SDS011;15787;49.662;10.162;2023-06-14T09:49:57;5.10;;;2.67;;
28587;SDS011;15787;49.662;10.162;2023-06-14T09:52:31;3.92;;;2.75;;
28587;SDS011;15787;49.662;10.162;2023-06-14T09:55:09;4.22;;;2.70;;
28587;SDS011;15787;49.662;10.162;2023-06-14T09:57:45;5.35;;;2.53;;
28587;SDS011;15787;49.662;10.162;2023-06-14T10:00:21;5.80;;;2.60;;
28587;SDS011;15787;49.662;10.162;2023-06-14T10:02:54;3.10;;;2.42;;
28587;SDS011;15787;49.662;10.162;2023-06-14T10:05:33;4.32;;;2.65;;
28587;SDS011;15787;49.662;10.162;2023-06-14T10:08:09;3.17;;;2.40;;
28587;SDS011;15787;49.662;10.162;2023-06-14T10:10:45;5.05;;;2.70;;
28587;SDS011;15787;49.662;10.162;2023-06-14T10:13:20;7.50;;;2.70;;
28587;SDS011;15787;49.662;10.162;2023-06-14T10:15:55;6.88;;;2.75;;
28587;SDS011;15787;49.662;10.162;2023-06-14T10:18:34;3.38;;;2.30;;
28587;SDS011;15787;49.662;10.162;2023-06-14T10:21:16;5.43;;;2.53;;
28587;SDS011;15787;49.662;10.162;2023-06-14T10:24:01;5.32;;;2.58;;
28587;SDS011;15787;49.662;10.162;2023-06-14T10:26:51;3.90;;;2.45;;
28587;SDS011;15787;49.662;10.162;2023-06-14T10:29:26;4.40;;;2.80;;
28587;SDS011;15787;49.662;10.162;2023-06-14T10:32:07;5.78;;;2.97;;
28587;SDS011;15787;49.662;10.162;2023-06-14T10:34:40;7.18;;;2.72;;
28587;SDS011;15787;49.662;10.162;2023-06-14T10:37:14;7.40;;;2.60;;
28587;SDS011;15787;49.662;10.162;2023-06-14T10:39:50;6.82;;;3.05;;
28587;SDS011;15787;49.662;10.162;2023-06-14T10:42:31;3.90;;;2.78;;
28587;SDS011;15787;49.662;10.162;2023-06-14T10:45:05;3.47;;;2.55;;
28587;SDS011;15787;49.662;10.162;2023-06-14T10:47:38;4.13;;;2.78;;
28587;SDS011;15787;49.662;10.162;2023-06-14T10:50:12;4.97;;;2.35;;
28587;SDS011;15787;49.662;10.162;2023-06-14T10:52:46;4.50;;;2.70;;
28587;SDS011;15787;49.662;10.162;2023-06-14T10:55:19;4.78;;;2.95;;
28587;SDS011;15787;49.662;10.162;2023-06-14T10:57:56;5.50;;;2.95;;
28587;SDS011;15787;49.662;10.162;2023-06-14T11:00:30;8.07;;;2.85;;
28587;SDS011;15787;49.662;10.162;2023-06-14T11:05:42;3.97;;;3.10;;
28587;SDS011;15787;49.662;10.162;2023-06-14T11:07:25;5.30;;;2.20;;
28587;SDS011;15787;49.662;10.162;2023-06-14T11:10:44;5.15;;;2.50;;
28587;SDS011;15787;49.662;10.162;2023-06-14T11:13:19;3.50;;;2.33;;
28587;SDS011;15787;49.662;10.162;2023-06-14T11:15:52;4.47;;;2.38;;
28587;SDS011;15787;49.662;10.162;2023-06-14T11:18:26;4.97;;;2.78;;
28587;SDS011;15787;49.662;10.162;2023-06-14T11:21:00;4.75;;;3.67;;
28587;SDS011;15787;49.662;10.162;2023-06-14T11:23:34;3.58;;;2.80;;
28587;SDS011;15787;49.662;10.162;2023-06-14T11:26:07;4.57;;;2.97;;
28587;SDS011;15787;49.662;10.162;2023-06-14T11:28:42;6.07;;;2.60;;
28587;SDS011;15787;49.662;10.162;2023-06-14T11:31:15;6.10;;;3.00;;
28587;SDS011;15787;49.662;10.162;2023-06-14T11:33:49;12.48;;;3.28;;
28587;SDS011;15787;49.662;10.162;2023-06-14T11:36:22;4.45;;;2.67;;
28587;SDS011;15787;49.662;10.162;2023-06-14T11:38:59;4.75;;;2.90;;
28587;SDS011;15787;49.662;10.162;2023-06-14T11:41:33;4.55;;;2.47;;
28587;SDS011;15787;49.662;10.162;2023-06-14T11:44:09;5.20;;;2.72;;
28587;SDS011;15787;49.662;10.162;2023-06-14T11:46:43;5.47;;;2.38;;
28587;SDS011;15787;49.662;10.162;2023-06-14T11:49:16;5.93;;;2.53;;
28587;SDS011;15787;49.662;10.162;2023-06-14T11:51:49;5.00;;;2.47;;
28587;SDS011;15787;49.662;10.162;2023-06-14T11:54:22;3.00;;;2.30;;
28587;SDS011;15787;49.662;10.162;2023-06-14T11:56:56;3.33;;;2.60;;
28587;SDS011;15787;49.662;10.162;2023-06-14T11:59:31;5.30;;;2.30;;
28587;SDS011;15787;49.662;10.162;2023-06-14T12:02:06;4.65;;;2.40;;
28587;SDS011;15787;49.662;10.162;2023-06-14T12:04:46;5.57;;;2.50;;
28587;SDS011;15787;49.662;10.162;2023-06-14T12:07:28;5.75;;;2.67;;
28587;SDS011;15787;49.662;10.162;2023-06-14T12:10:03;6.60;;;2.58;;
28587;SDS011;15787;49.662;10.162;2023-06-14T12:12:39;4.32;;;2.60;;
28587;SDS011;15787;49.662;10.162;2023-06-14T12:15:14;3.95;;;2.50;;
28587;SDS011;15787;49.662;10.162;2023-06-14T12:17:49;9.75;;;3.03;;
28587;SDS011;15787;49.662;10.162;2023-06-14T12:20:28;4.00;;;2.63;;
28587;SDS011;15787;49.662;10.162;2023-06-14T12:23:03;3.63;;;2.53;;
28587;SDS011;15787;49.662;10.162;2023-06-14T12:25:37;4.38;;;2.58;;
28587;SDS011;15787;49.662;10.162;2023-06-14T12:28:11;4.00;;;2.33;;
28587;SDS011;15787;49.662;10.162;2023-06-14T12:30:46;3.10;;;2.20;;
28587;SDS011;15787;49.662;10.162;2023-06-14T12:33:25;7.72;;;2.50;;
28587;SDS011;15787;49.662;10.162;2023-06-14T12:35:59;4.32;;;2.42;;
28587;SDS011;15787;49.662;10.162;2023-06-14T12:38:32;4.13;;;2.38;;
28587;SDS011;15787;49.662;10.162;2023-06-14T12:41:05;3.65;;;2.42;;
28587;SDS011;15787;49.662;10.162;2023-06-14T12:43:39;3.63;;;2.20;;
28587;SDS011;15787;49.662;10.162;2023-06-14T12:46:13;3.10;;;2.20;;
28587;SDS011;15787;49.662;10.162;2023-06-14T12:48:46;4.13;;;2.15;;
28587;SDS011;15787;49.662;10.162;2023-06-14T12:51:20;6.43;;;3.25;;
28587;SDS011;15787;49.662;10.162;2023-06-14T12:54:01;5.30;;;2.78;;
28587;SDS011;15787;49.662;10.162;2023-06-14T12:56:34;4.50;;;2.20;;
28587;SDS011;15787;49.662;10.162;2023-06-14T12:59:08;2.88;;;2.20;;
28587;SDS011;15787;49.662;10.162;2023-06-14T13:01:43;3.78;;;2.47;;
28587;SDS011;15787;49.662;10.162;2023-06-14T13:04:16;4.35;;;2.47;;
28587;SDS011;15787;49.662;10.162;2023-06-14T13:06:49;2.83;;;2.00;;
28587;SDS011;15787;49.662;10.162;2023-06-14T13:09:22;3.10;;;2.33;;
28587;SDS011;15787;49.662;10.162;2023-06-14T13:11:55;5.90;;;2.03;;
28587;SDS011;15787;49.662;10.162;2023-06-14T13:14:28;2.92;;;2.33;;
28587;SDS011;15787;49.662;10.162;2023-06-14T13:17:07;4.20;;;2.00;;
28587;SDS011;15787;49.662;10.162;2023-06-14T13:19:47;4.47;;;2.50;;
28587;SDS011;15787;49.662;10.162;2023-06-14T13:22:21;5.25;;;2.10;;
28587;SDS011;15787;49.662;10.162;2023-06-14T13:24:54;2.97;;;2.10;;
28587;SDS011;15787;49.662;10.162;2023-06-14T13:27:27;3.03;;;1.90;;
28587;SDS011;15787;49.662;10.162;2023-06-14T13:30:00;4.35;;;2.42;;
28587;SDS011;15787;49.662;10.162;2023-06-14T13:32:35;6.18;;;2.28;;
28587;SDS011;15787;49.662;10.162;2023-06-14T13:35:08;4.78;;;2.22;;
28587;SDS011;15787;49.662;10.162;2023-06-14T13:37:41;3.55;;;2.40;;
28587;SDS011;15787;49.662;10.162;2023-06-14T13:40:14;4.82;;;2.22;;
28587;SDS011;15787;49.662;10.162;2023-06-14T13:42:47;5.20;;;2.35;;
28587;SDS011;15787;49.662;10.162;2023-06-14T13:45:20;5.95;;;3.45;;
28587;SDS011;15787;49.662;10.162;2023-06-14T13:47:54;4.22;;;2.42;;
28587;SDS011;15787;49.662;10.162;2023-06-14T13:50:27;5.90;;;2.47;;
28587;SDS011;15787;49.662;10.162;2023-06-14T13:53:00;7.65;;;2.47;;
28587;SDS011;15787;49.662;10.162;2023-06-14T13:55:34;6.05;;;2.75;;
28587;SDS011;15787;49.662;10.162;2023-06-14T13:58:07;5.93;;;2.60;;
28587;SDS011;15787;49.662;10.162;2023-06-14T14:00:40;7.68;;;2.83;;
28587;SDS011;15787;49.662;10.162;2023-06-14T14:03:14;5.93;;;2.83;;
28587;SDS011;15787;49.662;10.162;2023-06-14T14:05:47;6.60;;;2.35;;
28587;SDS011;15787;49.662;10.162;2023-06-14T14:08:20;5.32;;;2.35;;
28587;SDS011;15787;49.662;10.162;2023-06-14T14:10:53;5.05;;;2.17;;
28587;SDS011;15787;49.662;10.162;2023-06-14T14:13:27;2.72;;;1.85;;
28587;SDS011;15787;49.662;10.162;2023-06-14T14:16:00;4.25;;;1.90;;
28587;SDS011;15787;49.662;10.162;2023-06-14T14:18:35;3.25;;;2.05;;
28587;SDS011;15787;49.662;10.162;2023-06-14T14:21:08;9.30;;;2.25;;
28587;SDS011;15787;49.662;10.162;2023-06-14T14:23:42;4.88;;;2.05;;
28587;SDS011;15787;49.662;10.162;2023-06-14T14:26:15;2.97;;;2.13;;
28587;SDS011;15787;49.662;10.162;2023-06-14T14:28:49;4.78;;;2.03;;
28587;SDS011;15787;49.662;10.162;2023-06-14T14:31:22;3.97;;;2.08;;
28587;SDS011;15787;49.662;10.162;2023-06-14T14:33:57;2.78;;;2.00;;
28587;SDS011;15787;49.662;10.162;2023-06-14T14:36:32;4.40;;;2.22;;
28587;SDS011;15787;49.662;10.162;2023-06-14T14:39:11;4.43;;;2.08;;
28587;SDS011;15787;49.662;10.162;2023-06-14T14:41:47;3.97;;;2.20;;
28587;SDS011;15787;49.662;10.162;2023-06-14T14:44:38;4.95;;;2.00;;
28587;SDS011;15787;49.662;10.162;2023-06-14T14:47:12;5.03;;;1.85;;
28587;SDS011;15787;49.662;10.162;2023-06-14T14:50:10;3.75;;;1.90;;
28587;SDS011;15787;49.662;10.162;2023-06-14T14:52:45;5.50;;;2.05;;
28587;SDS011;15787;49.662;10.162;2023-06-14T14:55:23;4.65;;;2.40;;
28587;SDS011;15787;49.662;10.162;2023-06-14T14:57:56;3.75;;;1.90;;
28587;SDS011;15787;49.662;10.162;2023-06-14T15:00:29;3.88;;;2.05;;
28587;SDS011;15787;49.662;10.162;2023-06-14T15:03:02;2.63;;;2.05;;
28587;SDS011;15787;49.662;10.162;2023-06-14T15:05:37;4.45;;;2.40;;
28587;SDS011;15787;49.662;10.162;2023-06-14T15:08:12;3.42;;;1.80;;
28587;SDS011;15787;49.662;10.162;2023-06-14T15:10:45;5.60;;;2.50;;
28587;SDS011;15787;49.662;10.162;2023-06-14T15:13:19;3.10;;;2.03;;
28587;SDS011;15787;49.662;10.162;2023-06-14T15:15:54;4.50;;;2.20;;
28587;SDS011;15787;49.662;10.162;2023-06-14T15:18:29;4.30;;;2.00;;